Time;durP1;ratioP1;P1;durP2;ratioP2;P2;SDS_P1;SDS_P2;PMS_P1;PMS_P2;Temp;Humidity;BMP_temperature;BMP_pressure;BME280_temperature;BME280_humidity;BME280_pressure;Samples;Min_cycle;Max_cycle;Signal;HPM_P1;HPM_P2
2023/06/25 00:00:05;;;;;;;6.07;5.57;;;18.50;1.00;;;;;;5097994;28;20206;-41
2023/06/25 00:02:30;;;;;;;6.67;6.07;;;18.50;1.00;;;;;;5096025;28;20529;-42
2023/06/25 00:04:56;;;;;;;5.90;5.40;;;18.40;1.00;;;;;;5113214;28;20515;-42
2023/06/25 00:07:22;;;;;;;6.80;6.20;;;18.40;1.00;;;;;;5077965;28;20339;-41
2023/06/25 00:09:55;;;;;;;7.47;6.77;;;18.30;1.00;;;;;;5113422;28;20258;-42
2023/06/25 00:12:21;;;;;;;7.20;6.50;;;18.30;1.00;;;;;;5113870;28;20672;-40
2023/06/25 00:14:47;;;;;;;6.00;5.40;;;18.20;1.00;;;;;;5112568;28;20841;-43
2023/06/25 00:17:17;;;;;;;7.53;6.57;;;18.20;1.00;;;;;;5113839;28;20442;-40
2023/06/25 00:19:46;;;;;;;6.40;5.80;;;18.10;1.00;;;;;;5080180;28;20202;-43
2023/06/25 00:22:12;;;;;;;6.43;5.83;;;18.10;4.70;;;;;;5079014;28;20495;-43
2023/06/25 00:24:38;;;;;;;7.40;5.60;;;18.00;22.80;;;;;;5096055;28;21059;-40
2023/06/25 00:27:05;;;;;;;7.70;7.00;;;18.00;33.30;;;;;;5114602;28;20509;-40
2023/06/25 00:29:30;;;;;;;6.50;5.80;;;17.90;45.10;;;;;;5116045;28;20512;-43
2023/06/25 00:31:56;;;;;;;8.17;6.50;;;17.90;66.80;;;;;;5116673;28;20527;-48
2023/06/25 00:34:22;;;;;;;6.60;6.00;;;17.90;99.90;;;;;;5115542;28;20183;-42
2023/06/25 00:36:51;;;;;;;6.97;6.37;;;17.90;99.90;;;;;;5115149;28;20187;-42
2023/06/25 00:39:18;;;;;;;6.57;5.97;;;17.90;99.90;;;;;;5114685;28;20249;-41
2023/06/25 00:41:43;;;;;;;7.07;6.40;;;17.80;99.90;;;;;;5115897;28;20552;-41
2023/06/25 00:44:09;;;;;;;7.27;6.60;;;17.80;99.90;;;;;;5116327;28;20548;-41
2023/06/25 00:46:35;;;;;;;7.07;6.37;;;17.80;99.90;;;;;;5116809;28;20266;-43
2023/06/25 00:49:06;;;;;;;7.27;6.57;;;17.70;99.90;;;;;;5097571;28;20442;-41
2023/06/25 00:51:35;;;;;;;7.97;7.27;;;17.70;99.90;;;;;;5099246;28;20554;-41
2023/06/25 00:54:05;;;;;;;7.57;6.87;;;17.70;99.90;;;;;;5115799;28;20414;-42
2023/06/25 00:56:34;;;;;;;7.27;6.67;;;17.70;99.90;;;;;;5115700;28;20429;-43
2023/06/25 00:59:01;;;;;;;6.63;6.03;;;17.70;99.90;;;;;;5097685;28;20532;-41
2023/06/25 01:01:37;;;;;;;7.13;6.53;;;17.60;99.90;;;;;;5115920;28;20473;-43
2023/06/25 01:04:11;;;;;;;8.40;7.70;;;17.60;99.90;;;;;;5114629;28;20420;-40
2023/06/25 01:06:41;;;;;;;8.93;8.00;;;17.60;99.90;;;;;;5097118;28;20456;-42
2023/06/25 01:09:11;;;;;;;7.50;6.87;;;17.50;1.00;;;;;;5115109;28;20426;-40
2023/06/25 01:11:37;;;;;;;7.90;7.30;;;17.40;1.00;;;;;;5114675;28;20421;-42
2023/06/25 01:14:03;;;;;;;8.10;6.87;;;17.50;1.00;;;;;;5118534;28;20429;-40
2023/06/25 01:16:29;;;;;;;8.10;7.30;;;17.40;1.00;;;;;;5101508;28;20520;-41
2023/06/25 01:18:58;;;;;;;8.57;7.77;;;17.40;1.00;;;;;;5119736;28;20778;-40
2023/06/25 01:21:26;;;;;;;7.83;7.23;;;17.40;1.00;;;;;;5120786;28;20537;-41
2023/06/25 01:23:52;;;;;;;7.87;7.17;;;17.40;1.00;;;;;;5086561;28;20501;-43
2023/06/25 01:26:21;;;;;;;8.30;7.63;;;17.40;1.00;;;;;;5119854;28;20401;-40
2023/06/25 01:28:47;;;;;;;9.43;8.63;;;17.30;1.00;;;;;;5119034;28;20417;-42
2023/06/25 01:31:13;;;;;;;10.13;7.90;;;17.20;1.00;;;;;;5120141;28;20536;-43
2023/06/25 01:33:38;;;;;;;8.97;8.10;;;17.20;42.40;;;;;;5120526;28;20449;-41
2023/06/25 01:36:04;;;;;;;8.87;8.10;;;17.20;53.20;;;;;;5120094;28;20167;-42
2023/06/25 01:38:30;;;;;;;8.20;7.40;;;17.10;21.70;;;;;;5120294;28;20180;-41
2023/06/25 01:40:56;;;;;;;9.20;8.00;;;17.10;99.90;;;;;;5119986;28;20437;-40
2023/06/25 01:43:21;;;;;;;8.60;7.90;;;17.10;99.90;;;;;;5120224;28;20219;-40
2023/06/25 01:45:47;;;;;;;8.70;7.90;;;17.00;99.90;;;;;;5120340;28;20180;-40
2023/06/25 01:48:13;;;;;;;8.43;7.73;;;17.10;99.90;;;;;;5119538;28;20233;-41
2023/06/25 01:50:39;;;;;;;8.60;7.70;;;17.00;99.90;;;;;;5120118;28;20163;-41
2023/06/25 01:53:04;;;;;;;8.50;7.80;;;17.00;99.90;;;;;;5102017;28;20479;-42
2023/06/25 01:55:30;;;;;;;8.00;7.30;;;16.90;99.90;;;;;;5120089;28;20466;-40
2023/06/25 01:57:56;;;;;;;9.30;8.40;;;17.00;99.90;;;;;;5119553;28;20188;-42
2023/06/25 02:00:22;;;;;;;8.60;7.80;;;16.90;99.90;;;;;;5119991;28;20175;-41
2023/06/25 02:02:48;;;;;;;8.07;7.37;;;16.90;99.90;;;;;;5119489;28;20241;-41
2023/06/25 02:05:13;;;;;;;9.60;8.60;;;16.80;99.90;;;;;;5119693;28;20608;-41
2023/06/25 02:07:39;;;;;;;9.43;8.57;;;16.80;99.90;;;;;;5119141;28;20172;-40
2023/06/25 02:10:05;;;;;;;10.63;7.90;;;16.80;1.00;;;;;;5118803;28;20251;-40
2023/06/25 02:12:31;;;;;;;9.07;8.27;;;16.80;1.00;;;;;;5099612;28;20269;-41
2023/06/25 02:14:57;;;;;;;8.40;7.60;;;16.70;1.00;;;;;;5117787;28;20501;-41
2023/06/25 02:17:22;;;;;;;7.10;6.40;;;16.70;1.00;;;;;;5117615;28;20504;-41
2023/06/25 02:19:48;;;;;;;7.77;7.17;;;16.70;1.00;;;;;;5118141;28;20237;-42
2023/06/25 02:22:14;;;;;;;8.70;7.90;;;16.60;99.90;;;;;;5118649;28;20296;-42
2023/06/25 02:24:39;;;;;;;7.93;7.20;;;16.60;99.90;;;;;;5118560;28;20201;-40
2023/06/25 02:27:06;;;;;;;9.67;8.67;;;16.60;99.90;;;;;;5118179;28;20409;-39
2023/06/25 02:29:31;;;;;;;8.60;7.80;;;16.50;99.90;;;;;;5119511;28;20247;-41
2023/06/25 02:31:57;;;;;;;7.70;7.00;;;16.50;99.90;;;;;;5118821;28;20430;-40
2023/06/25 02:34:22;;;;;;;9.63;7.73;;;16.40;99.90;;;;;;5117113;28;20279;-39
2023/06/25 02:36:50;;;;;;;8.23;7.50;;;16.40;99.90;;;;;;5098631;28;20797;-41
2023/06/25 02:39:16;;;;;;;9.00;7.93;;;16.40;99.90;;;;;;5117234;28;20276;-42
2023/06/25 02:41:41;;;;;;;7.73;7.03;;;16.30;99.90;;;;;;5116343;28;21068;-39
2023/06/25 02:44:07;;;;;;;8.83;8.00;;;16.30;99.90;;;;;;5116848;28;20187;-42
2023/06/25 02:46:34;;;;;;;7.60;7.00;;;16.30;99.90;;;;;;5117149;28;20468;-40
2023/06/25 02:49:00;;;;;;;8.60;7.80;;;16.20;1.00;;;;;;5117685;28;20172;-41
2023/06/25 02:51:25;;;;;;;8.97;8.07;;;16.20;1.00;;;;;;5118342;28;20444;-40
2023/06/25 02:53:51;;;;;;;8.27;7.57;;;16.20;1.00;;;;;;5118651;28;20168;-41
2023/06/25 02:56:16;;;;;;;8.53;7.73;;;16.20;1.00;;;;;;5117570;28;20507;-40
2023/06/25 02:58:42;;;;;;;8.00;7.30;;;16.20;1.00;;;;;;5116519;28;20233;-41
2023/06/25 03:01:08;;;;;;;8.33;7.63;;;16.20;1.00;;;;;;5117565;28;20469;-40
2023/06/25 03:03:33;;;;;;;7.70;6.93;;;16.20;1.00;;;;;;5117241;28;20175;-42
2023/06/25 03:05:59;;;;;;;9.30;8.50;;;16.10;1.00;;;;;;5116633;28;20225;-40
2023/06/25 03:08:24;;;;;;;8.60;7.90;;;16.10;1.00;;;;;;5116448;28;20271;-40
2023/06/25 03:10:50;;;;;;;8.70;8.00;;;16.10;24.30;;;;;;5115524;28;20175;-41
2023/06/25 03:13:15;;;;;;;7.90;7.20;;;16.10;43.50;;;;;;5116203;28;20511;-40
2023/06/25 03:15:41;;;;;;;8.37;7.67;;;16.10;44.10;;;;;;5116224;28;20186;-41
2023/06/25 03:18:07;;;;;;;8.60;7.70;;;16.00;99.90;;;;;;5115974;28;20167;-41
2023/06/25 03:20:32;;;;;;;8.23;7.53;;;16.00;99.90;;;;;;5115886;28;20202;-39
2023/06/25 03:22:58;;;;;;;8.40;7.70;;;16.00;99.90;;;;;;5116000;28;20212;-40
2023/06/25 03:25:24;;;;;;;7.40;6.80;;;15.90;99.90;;;;;;5116966;28;20274;-40
2023/06/25 03:27:49;;;;;;;8.13;7.27;;;15.90;99.90;;;;;;5117542;28;20431;-42
2023/06/25 03:30:15;;;;;;;8.73;7.93;;;15.90;99.90;;;;;;5116803;28;20176;-41
2023/06/25 03:32:42;;;;;;;8.80;7.87;;;15.80;1.00;;;;;;5116684;28;20238;-41
2023/06/25 03:35:08;;;;;;;9.00;8.17;;;15.80;99.90;;;;;;5116415;28;20175;-40
2023/06/25 03:37:33;;;;;;;7.40;6.70;;;15.80;99.90;;;;;;5116299;28;20699;-41
2023/06/25 03:39:59;;;;;;;8.23;7.53;;;15.90;99.90;;;;;;5116990;28;20591;-41
2023/06/25 03:42:25;;;;;;;8.57;7.77;;;15.90;99.90;;;;;;5117188;28;20219;-39
2023/06/25 03:44:53;;;;;;;8.67;7.60;;;15.90;99.90;;;;;;5117204;28;20254;-42
2023/06/25 03:47:19;;;;;;;8.77;7.90;;;15.90;99.90;;;;;;5116639;28;20171;-40
2023/06/25 03:49:45;;;;;;;8.97;7.93;;;15.90;99.90;;;;;;5117125;28;20485;-39
2023/06/25 03:52:10;;;;;;;11.87;7.93;;;15.90;1.00;;;;;;5099403;28;20520;-38
2023/06/25 03:54:36;;;;;;;7.53;6.93;;;15.90;1.00;;;;;;5117219;28;20319;-40
2023/06/25 03:57:02;;;;;;;7.67;7.00;;;15.80;1.00;;;;;;5097915;28;20172;-41
2023/06/25 03:59:28;;;;;;;7.47;6.87;;;15.90;1.00;;;;;;5096543;28;20184;-41
2023/06/25 04:01:54;;;;;;;7.77;6.97;;;15.90;1.00;;;;;;5115715;28;20492;-40
2023/06/25 04:04:19;;;;;;;7.90;7.23;;;15.90;1.00;;;;;;5117106;28;20430;-40
2023/06/25 04:06:45;;;;;;;8.20;7.50;;;15.80;1.00;;;;;;5117689;28;20201;-41
2023/06/25 04:09:11;;;;;;;8.27;7.47;;;15.80;1.00;;;;;;5116985;28;20176;-43
2023/06/25 04:11:36;;;;;;;8.60;7.80;;;15.80;1.00;;;;;;5116791;28;20233;-40
2023/06/25 04:14:02;;;;;;;9.73;8.93;;;15.80;1.00;;;;;;5116900;28;20184;-42
2023/06/25 04:16:27;;;;;;;8.90;8.10;;;15.80;35.70;;;;;;5115831;28;20271;-42
2023/06/25 04:18:53;;;;;;;8.30;7.60;;;15.80;30.50;;;;;;5115369;28;20194;-41
2023/06/25 04:21:19;;;;;;;9.63;8.73;;;15.80;1.00;;;;;;5115047;28;20204;-43
2023/06/25 04:23:45;;;;;;;9.07;8.27;;;15.90;1.00;;;;;;5116158;28;20200;-41
2023/06/25 04:26:10;;;;;;;9.57;8.67;;;15.90;1.00;;;;;;5116311;28;20433;-42
2023/06/25 04:28:36;;;;;;;8.90;8.20;;;16.00;1.00;;;;;;5115778;28;20446;-41
2023/06/25 04:31:02;;;;;;;9.10;8.20;;;16.00;99.90;;;;;;5115465;28;20222;-42
2023/06/25 04:33:27;;;;;;;10.03;9.03;;;16.00;1.00;;;;;;5115251;28;20176;-41
2023/06/25 04:35:53;;;;;;;9.17;8.30;;;16.10;1.00;;;;;;5116787;28;20212;-42
2023/06/25 04:38:18;;;;;;;9.20;8.40;;;16.20;99.90;;;;;;5115543;28;20167;-42
2023/06/25 04:40:45;;;;;;;8.40;7.70;;;16.20;99.90;;;;;;5097233;28;20190;-42
2023/06/25 04:43:10;;;;;;;9.37;8.57;;;16.30;99.90;;;;;;5115827;28;20617;-41
2023/06/25 04:45:36;;;;;;;9.67;8.67;;;16.40;57.80;;;;;;5115516;28;20574;-40
2023/06/25 04:48:02;;;;;;;10.03;9.10;;;16.50;1.00;;;;;;5113642;28;20200;-40
2023/06/25 04:50:27;;;;;;;8.87;8.07;;;16.50;1.00;;;;;;5116046;28;20179;-42
2023/06/25 04:52:54;;;;;;;9.07;8.27;;;16.60;1.00;;;;;;5116739;28;20194;-41
2023/06/25 04:55:20;;;;;;;9.53;8.63;;;16.70;1.00;;;;;;5116956;28;20228;-42
2023/06/25 04:57:45;;;;;;;8.83;8.03;;;16.70;1.00;;;;;;5116780;28;20726;-41
2023/06/25 05:00:12;;;;;;;8.97;8.17;;;16.70;99.90;;;;;;5115352;28;20248;-42
2023/06/25 05:02:37;;;;;;;8.73;8.03;;;16.80;99.90;;;;;;5113986;28;20557;-42
2023/06/25 05:05:03;;;;;;;8.60;7.80;;;16.90;99.90;;;;;;5095854;28;20862;-42
2023/06/25 05:07:29;;;;;;;9.50;8.67;;;16.90;99.90;;;;;;5114496;28;20187;-43
2023/06/25 05:09:54;;;;;;;9.70;8.87;;;17.00;99.90;;;;;;5115619;28;20441;-40
2023/06/25 05:12:20;;;;;;;9.10;8.20;;;17.20;99.90;;;;;;5104556;28;20263;-41
2023/06/25 05:14:46;;;;;;;8.27;7.57;;;17.30;1.00;;;;;;5115048;28;20190;-39
2023/06/25 05:17:11;;;;;;;9.30;8.47;;;17.40;1.00;;;;;;5115330;28;20209;-42
2023/06/25 05:19:37;;;;;;;9.40;8.50;;;17.60;1.00;;;;;;5114316;28;20195;-41
2023/06/25 05:22:04;;;;;;;8.83;8.10;;;17.70;1.00;;;;;;5114438;28;20219;-43
2023/06/25 05:24:30;;;;;;;8.67;7.77;;;17.70;1.00;;;;;;5114746;28;20180;-41
2023/06/25 05:26:56;;;;;;;8.17;7.43;;;17.90;99.90;;;;;;5096324;28;20413;-40
2023/06/25 05:29:21;;;;;;;7.93;7.23;;;18.00;99.90;;;;;;5114486;28;20704;-42
2023/06/25 05:31:47;;;;;;;9.07;8.17;;;18.20;99.90;;;;;;5097184;28;20195;-43
2023/06/25 05:34:13;;;;;;;8.63;7.83;;;18.30;16.70;;;;;;5114941;28;20184;-40
2023/06/25 05:36:38;;;;;;;8.80;8.00;;;18.40;1.00;;;;;;5114888;28;20689;-41
2023/06/25 05:39:04;;;;;;;7.97;7.23;;;18.60;1.00;;;;;;5096785;28;20514;-41
2023/06/25 05:41:30;;;;;;;7.70;6.90;;;18.80;1.00;;;;;;5114780;28;20299;-42
2023/06/25 05:43:56;;;;;;;7.50;6.80;;;18.90;1.00;;;;;;5097694;28;20436;-41
2023/06/25 05:46:21;;;;;;;8.60;7.80;;;19.10;99.90;;;;;;5116141;28;20297;-42
2023/06/25 05:48:47;;;;;;;9.73;6.40;;;19.30;99.90;;;;;;5116598;28;20213;-42
2023/06/25 05:51:13;;;;;;;6.93;6.33;;;19.50;99.90;;;;;;5116448;28;20426;-41
2023/06/25 05:53:40;;;;;;;9.73;7.20;;;19.70;99.90;;;;;;5116675;28;20428;-42
2023/06/25 05:56:07;;;;;;;7.00;6.30;;;19.90;49.60;;;;;;5114655;28;20307;-43
2023/06/25 05:58:34;;;;;;;7.03;6.37;;;20.10;7.20;;;;;;5114962;28;20422;-41
2023/06/25 06:00:59;;;;;;;7.07;6.47;;;20.20;1.00;;;;;;5119141;28;20425;-43
2023/06/25 06:03:25;;;;;;;6.37;5.80;;;20.40;1.00;;;;;;5098800;28;20487;-41
2023/06/25 06:05:50;;;;;;;7.20;6.47;;;20.50;1.00;;;;;;5118025;28;20191;-41
2023/06/25 06:08:16;;;;;;;6.40;5.80;;;20.70;1.00;;;;;;5117709;28;20283;-42
2023/06/25 06:10:46;;;;;;;7.20;6.60;;;20.90;1.00;;;;;;5116798;28;20180;-42
2023/06/25 06:13:12;;;;;;;8.03;6.47;;;21.10;1.00;;;;;;5117500;28;20240;-43
2023/06/25 06:15:38;;;;;;;6.67;6.07;;;21.20;1.00;;;;;;5116616;28;20462;-41
2023/06/25 06:18:03;;;;;;;7.23;6.63;;;21.40;1.00;;;;;;5115807;28;20420;-42
2023/06/25 06:20:29;;;;;;;8.00;5.67;;;21.60;1.00;;;;;;5117573;28;20232;-40
2023/06/25 06:22:54;;;;;;;6.37;5.77;;;21.70;1.00;;;;;;5116866;28;20309;-41
2023/06/25 06:25:20;;;;;;;7.37;6.67;;;21.80;1.00;;;;;;5115838;28;20179;-41
2023/06/25 06:27:46;;;;;;;7.00;6.33;;;21.90;1.00;;;;;;5116273;28;20184;-41
2023/06/25 06:30:12;;;;;;;6.97;6.37;;;22.10;1.00;;;;;;5119420;28;20190;-40
2023/06/25 06:32:37;;;;;;;6.70;6.10;;;22.20;1.00;;;;;;5082229;28;20180;-42
2023/06/25 06:35:03;;;;;;;7.03;6.43;;;22.30;1.00;;;;;;5083286;28;20425;-41
2023/06/25 06:37:29;;;;;;;6.87;6.27;;;22.50;1.00;;;;;;5118856;28;20211;-43
2023/06/25 06:39:54;;;;;;;6.87;6.13;;;22.60;1.00;;;;;;5118031;28;20623;-42
2023/06/25 06:42:20;;;;;;;6.53;5.93;;;22.70;1.00;;;;;;5118727;28;20215;-40
2023/06/25 06:44:46;;;;;;;7.40;6.70;;;22.80;1.00;;;;;;5118552;28;20172;-42
2023/06/25 06:47:11;;;;;;;6.43;5.90;;;22.90;1.00;;;;;;5117035;28;20198;-41
2023/06/25 06:49:37;;;;;;;7.10;6.40;;;23.00;1.00;;;;;;5117406;28;20403;-42
2023/06/25 06:52:02;;;;;;;7.07;6.47;;;23.00;1.00;;;;;;5117400;28;20192;-41
2023/06/25 06:54:28;;;;;;;6.70;6.10;;;23.10;1.00;;;;;;5095152;28;20232;-43
2023/06/25 06:56:54;;;;;;;6.90;6.30;;;23.20;1.00;;;;;;5096132;28;20172;-43
2023/06/25 06:59:20;;;;;;;6.23;5.73;;;23.30;1.00;;;;;;5097454;28;20276;-41
2023/06/25 07:01:45;;;;;;;6.33;5.83;;;23.50;1.00;;;;;;5095353;28;20489;-41
2023/06/25 07:04:11;;;;;;;7.10;6.50;;;23.60;1.00;;;;;;5076625;28;20541;-41
2023/06/25 07:06:37;;;;;;;6.40;5.80;;;23.80;1.00;;;;;;5078129;28;20259;-41
2023/06/25 07:09:02;;;;;;;6.73;6.13;;;23.90;1.00;;;;;;5077177;28;20455;-42
2023/06/25 07:11:28;;;;;;;9.70;6.33;;;24.10;1.00;;;;;;5076304;28;20169;-54
2023/06/25 07:13:53;;;;;;;7.60;6.90;;;24.30;1.00;;;;;;5077393;28;20251;-40
2023/06/25 07:16:19;;;;;;;7.20;6.50;;;24.40;1.00;;;;;;5077040;28;20239;-42
2023/06/25 07:18:45;;;;;;;7.00;6.40;;;24.50;1.00;;;;;;5077449;28;20208;-40
2023/06/25 07:21:11;;;;;;;7.50;6.00;;;24.60;1.00;;;;;;5076771;28;20196;-40
2023/06/25 07:23:36;;;;;;;7.70;7.00;;;24.70;1.00;;;;;;5076101;28;20169;-44
2023/06/25 07:26:03;;;;;;;8.53;7.47;;;24.80;1.00;;;;;;5075294;28;20419;-41
2023/06/25 07:28:28;;;;;;;7.50;6.83;;;24.70;1.00;;;;;;5074807;28;20174;-42
2023/06/25 07:30:54;;;;;;;7.13;6.60;;;24.90;1.00;;;;;;5076159;28;20495;-42
2023/06/25 07:33:20;;;;;;;7.20;6.60;;;24.90;1.00;;;;;;5075351;28;20177;-42
2023/06/25 07:35:45;;;;;;;6.23;5.73;;;25.00;1.00;;;;;;5075959;28;20212;-42
2023/06/25 07:38:11;;;;;;;6.67;6.07;;;25.10;1.00;;;;;;5075620;28;20207;-41
2023/06/25 07:40:36;;;;;;;6.77;6.17;;;25.10;1.00;;;;;;5075837;28;20185;-43
2023/06/25 07:43:03;;;;;;;8.67;7.20;;;25.20;1.00;;;;;;5075272;28;20208;-42
2023/06/25 07:45:29;;;;;;;6.43;5.83;;;25.30;1.00;;;;;;5072851;28;20253;-41
2023/06/25 07:47:55;;;;;;;6.90;6.30;;;25.30;1.00;;;;;;5075961;28;20419;-41
2023/06/25 07:50:21;;;;;;;7.00;6.40;;;25.40;1.00;;;;;;5058788;28;20284;-43
2023/06/25 07:52:47;;;;;;;7.90;7.10;;;25.60;1.00;;;;;;5073610;28;20553;-42
2023/06/25 07:55:12;;;;;;;6.97;6.30;;;25.60;1.00;;;;;;5074403;28;20904;-43
2023/06/25 07:57:38;;;;;;;7.07;6.47;;;25.50;1.00;;;;;;5040402;28;20223;-42
2023/06/25 08:00:05;;;;;;;7.13;6.53;;;25.60;1.00;;;;;;5075498;28;20181;-41
2023/06/25 08:02:31;;;;;;;6.90;6.30;;;25.80;1.00;;;;;;5074249;28;20207;-41
2023/06/25 08:04:57;;;;;;;7.43;6.63;;;26.00;1.00;;;;;;5077761;28;20554;-40
2023/06/25 08:07:23;;;;;;;7.07;6.37;;;26.20;1.00;;;;;;5093164;28;20493;-42
2023/06/25 08:09:49;;;;;;;7.37;6.70;;;26.40;1.00;;;;;;5093186;28;20981;-41
2023/06/25 08:12:14;;;;;;;7.17;6.47;;;26.60;1.00;;;;;;5067778;28;20193;-43
2023/06/25 08:14:40;;;;;;;8.07;7.37;;;26.60;1.00;;;;;;5075314;28;20443;-42
2023/06/25 08:17:06;;;;;;;7.13;6.43;;;26.70;1.00;;;;;;5073827;28;20891;-45
2023/06/25 08:19:32;;;;;;;7.03;6.33;;;26.70;1.00;;;;;;5075353;28;20430;-43
2023/06/25 08:21:57;;;;;;;7.60;6.90;;;26.80;1.00;;;;;;5056489;28;20696;-42
2023/06/25 08:24:23;;;;;;;8.20;7.40;;;26.80;1.00;;;;;;5054387;28;20563;-44
2023/06/25 08:26:48;;;;;;;7.87;7.10;;;26.90;1.00;;;;;;5073985;28;20165;-42
2023/06/25 08:29:17;;;;;;;8.00;7.40;;;27.30;1.00;;;;;;5073377;28;20267;-42
2023/06/25 08:31:43;;;;;;;7.50;6.90;;;27.60;1.00;;;;;;5074234;28;20185;-44
2023/06/25 08:34:08;;;;;;;6.97;6.47;;;27.90;1.00;;;;;;5073486;28;20905;-41
2023/06/25 08:36:34;;;;;;;7.30;6.67;;;28.20;1.00;;;;;;5074552;28;20603;-43
2023/06/25 08:38:59;;;;;;;7.30;6.70;;;28.20;1.00;;;;;;5055745;28;20169;-41
2023/06/25 08:41:26;;;;;;;8.30;7.60;;;28.10;1.00;;;;;;5056946;28;20211;-41
2023/06/25 08:43:55;;;;;;;6.80;6.20;;;28.00;1.00;;;;;;5074523;28;20498;-42
2023/06/25 08:46:25;;;;;;;7.33;6.73;;;28.00;1.00;;;;;;5074454;28;20434;-42
2023/06/25 08:48:54;;;;;;;7.20;6.60;;;27.90;1.00;;;;;;5054601;28;20814;-41
2023/06/25 08:51:24;;;;;;;7.20;6.50;;;27.90;1.00;;;;;;5071782;28;20585;-40
2023/06/25 08:53:50;;;;;;;7.37;6.77;;;27.90;1.00;;;;;;5073090;28;20791;-46
2023/06/25 08:56:16;;;;;;;8.23;7.63;;;27.90;1.00;;;;;;5055179;28;20601;-42
2023/06/25 08:58:42;;;;;;;8.03;7.33;;;27.90;1.00;;;;;;5072911;28;20535;-44
2023/06/25 09:01:08;;;;;;;7.87;7.17;;;27.90;1.00;;;;;;5072417;28;20423;-41
2023/06/25 09:03:33;;;;;;;7.63;7.03;;;28.00;1.00;;;;;;5072409;28;20482;-42
2023/06/25 09:05:59;;;;;;;7.37;6.60;;;28.10;1.00;;;;;;5072777;28;20252;-41
2023/06/25 09:08:26;;;;;;;8.90;8.10;;;28.40;1.00;;;;;;5071982;28;20200;-42
2023/06/25 09:10:53;;;;;;;7.00;6.40;;;28.80;1.00;;;;;;5072854;28;20188;-42
2023/06/25 09:13:27;;;;;;;7.70;7.00;;;29.30;1.00;;;;;;5055571;28;20678;-41
2023/06/25 09:15:59;;;;;;;6.30;5.80;;;29.40;1.00;;;;;;5074722;28;20604;-41
2023/06/25 09:18:25;;;;;;;7.77;6.90;;;29.60;1.00;;;;;;5072516;28;20393;-42
2023/06/25 09:20:50;;;;;;;7.60;6.93;;;29.60;1.00;;;;;;5037105;28;20566;-41
2023/06/25 09:23:20;;;;;;;7.23;6.73;;;29.70;1.00;;;;;;5036574;28;20279;-44
2023/06/25 09:25:46;;;;;;;6.97;6.37;;;29.60;1.00;;;;;;5053666;28;20170;-41
2023/06/25 09:28:12;;;;;;;7.63;6.93;;;29.50;1.00;;;;;;5054535;28;20911;-42
2023/06/25 09:30:41;;;;;;;7.00;6.40;;;29.60;1.00;;;;;;5054259;28;20425;-42
2023/06/25 09:33:08;;;;;;;7.97;7.27;;;30.00;1.00;;;;;;5018412;28;20575;-42
2023/06/25 09:35:34;;;;;;;7.20;6.50;;;30.10;1.00;;;;;;5057421;28;20427;-42
2023/06/25 09:38:03;;;;;;;6.83;6.20;;;30.10;1.00;;;;;;5057152;28;20516;-43
2023/06/25 09:40:30;;;;;;;7.53;6.93;;;30.30;1.00;;;;;;5062198;28;20406;-44
2023/06/25 09:42:58;;;;;;;6.93;6.33;;;30.50;1.00;;;;;;5078187;28;20486;-43
2023/06/25 09:45:25;;;;;;;6.73;6.13;;;30.80;1.00;;;;;;5060017;28;20429;-43
2023/06/25 09:47:52;;;;;;;7.20;6.60;;;31.10;1.00;;;;;;5077202;28;20407;-44
2023/06/25 09:50:28;;;;;;;7.87;7.27;;;31.30;1.00;;;;;;5065136;28;20484;-42
2023/06/25 09:52:55;;;;;;;10.33;7.00;;;31.40;1.00;;;;;;5058476;28;20968;-43
2023/06/25 09:55:22;;;;;;;8.53;7.83;;;31.80;1.00;;;;;;5069189;28;20511;-43
2023/06/25 09:57:49;;;;;;;8.30;7.57;;;32.30;1.00;;;;;;5077228;28;20417;-42
2023/06/25 10:00:16;;;;;;;7.97;7.37;;;32.10;1.00;;;;;;5077850;28;20401;-45
2023/06/25 10:02:44;;;;;;;8.23;7.50;;;32.30;1.00;;;;;;5077082;28;21149;-42
2023/06/25 10:05:10;;;;;;;8.47;7.80;;;32.10;1.00;;;;;;5077764;28;20431;-44
2023/06/25 10:07:36;;;;;;;9.03;8.13;;;31.90;1.00;;;;;;5077919;28;20415;-42
2023/06/25 10:10:02;;;;;;;8.77;7.87;;;32.10;1.00;;;;;;5060504;28;20513;-42
2023/06/25 10:12:33;;;;;;;7.20;6.60;;;31.80;1.00;;;;;;5076308;28;20276;-46
2023/06/25 10:15:01;;;;;;;7.77;7.07;;;31.70;1.00;;;;;;5058442;28;20410;-42
2023/06/25 10:17:27;;;;;;;8.50;7.80;;;32.10;1.00;;;;;;5076747;28;20382;-42
2023/06/25 10:19:55;;;;;;;9.20;8.40;;;32.50;1.00;;;;;;5076244;28;20504;-44
2023/06/25 10:22:22;;;;;;;8.13;7.53;;;32.60;1.00;;;;;;5058634;28;20315;-44
2023/06/25 10:24:49;;;;;;;8.83;8.00;;;32.10;1.00;;;;;;5075744;28;20427;-42
2023/06/25 10:27:23;;;;;;;9.30;8.50;;;31.90;1.00;;;;;;5074006;28;20530;-42
2023/06/25 10:29:49;;;;;;;9.47;8.67;;;31.50;1.00;;;;;;5075780;28;20418;-43
2023/06/25 10:32:27;;;;;;;9.30;8.50;;;31.90;1.00;;;;;;5076799;28;20874;-42
2023/06/25 10:35:00;;;;;;;8.27;7.60;;;32.10;1.00;;;;;;5077036;28;20276;-43
2023/06/25 10:37:29;;;;;;;7.93;7.23;;;31.70;1.00;;;;;;5076224;28;20462;-44
2023/06/25 10:40:07;;;;;;;8.60;7.90;;;31.60;1.00;;;;;;5075971;28;20470;-46
2023/06/25 10:42:35;;;;;;;9.63;8.73;;;31.90;1.00;;;;;;5076447;28;20520;-42
2023/06/25 10:45:02;;;;;;;8.20;7.50;;;32.40;1.00;;;;;;5074693;28;20382;-46
2023/06/25 10:47:27;;;;;;;9.33;8.53;;;32.70;1.00;;;;;;5074539;28;20950;-44
2023/06/25 10:49:53;;;;;;;9.40;8.60;;;32.80;1.00;;;;;;5075424;28;20451;-43
2023/06/25 10:52:18;;;;;;;9.23;8.50;;;32.70;1.00;;;;;;5073590;28;20211;-44
2023/06/25 10:54:44;;;;;;;8.90;8.20;;;32.80;1.00;;;;;;5081679;28;20298;-42
2023/06/25 10:57:12;;;;;;;8.83;8.03;;;32.80;1.00;;;;;;5095294;28;20188;-44
2023/06/25 10:59:38;;;;;;;7.53;7.03;;;32.90;1.00;;;;;;5093893;28;20538;-44
2023/06/25 11:02:21;;;;;;;8.90;8.20;;;33.40;1.00;;;;;;5094641;28;20726;-42
2023/06/25 11:04:54;;;;;;;9.40;8.60;;;34.20;1.00;;;;;;5092792;28;20479;-43
2023/06/25 11:07:29;;;;;;;8.00;7.30;;;34.50;1.00;;;;;;5062311;28;20473;-44
2023/06/25 11:10:00;;;;;;;8.40;7.63;;;34.80;1.00;;;;;;5078204;28;20758;-42
2023/06/25 11:12:27;;;;;;;10.77;8.50;;;34.80;1.00;;;;;;5094348;28;20698;-44
2023/06/25 11:14:52;;;;;;;9.47;8.70;;;34.60;1.00;;;;;;5093522;28;20442;-42
2023/06/25 11:17:18;;;;;;;9.40;8.60;;;34.30;1.00;;;;;;5093899;28;20975;-42
2023/06/25 11:19:50;;;;;;;9.83;8.93;;;34.20;1.00;;;;;;5095359;28;20185;-43
2023/06/25 11:22:16;;;;;;;9.13;8.33;;;34.10;1.00;;;;;;5076825;28;20218;-43
2023/06/25 11:24:41;;;;;;;9.30;8.60;;;34.00;1.00;;;;;;5095753;28;20397;-44
2023/06/25 11:27:07;;;;;;;9.30;8.60;;;34.10;1.00;;;;;;5095217;28;20169;-43
2023/06/25 11:29:36;;;;;;;8.70;8.00;;;34.30;1.00;;;;;;5095765;28;20176;-44
2023/06/25 11:32:05;;;;;;;9.27;8.50;;;34.90;1.00;;;;;;5094930;28;20198;-43
2023/06/25 11:34:31;;;;;;;9.20;8.40;;;35.20;1.00;;;;;;5075944;28;20446;-43
2023/06/25 11:37:11;;;;;;;8.67;7.97;;;35.40;1.00;;;;;;5094225;28;20483;-43
2023/06/25 11:39:50;;;;;;;8.93;8.17;;;35.50;1.00;;;;;;5076707;28;20602;-43
2023/06/25 11:42:22;;;;;;;9.40;8.60;;;35.40;1.00;;;;;;5062594;28;20490;-43
2023/06/25 11:45:02;;;;;;;9.00;8.20;;;34.80;1.00;;;;;;5075772;28;20801;-44
2023/06/25 11:47:27;;;;;;;10.10;9.30;;;34.50;1.00;;;;;;5093543;28;20389;-43
2023/06/25 11:49:55;;;;;;;10.07;9.27;;;33.80;1.00;;;;;;5094428;28;20614;-43
2023/06/25 11:52:21;;;;;;;9.90;9.07;;;33.40;1.00;;;;;;5093980;28;20176;-44
2023/06/25 11:54:48;;;;;;;10.17;9.27;;;33.60;1.00;;;;;;5087185;28;20521;-44
2023/06/25 11:57:15;;;;;;;9.10;8.40;;;34.30;1.00;;;;;;5056640;28;20441;-42
2023/06/25 11:59:42;;;;;;;10.30;9.33;;;34.80;1.00;;;;;;5073671;28;20486;-43
2023/06/25 12:02:09;;;;;;;8.53;7.83;;;35.00;1.00;;;;;;5072910;28;20456;-42
2023/06/25 12:04:35;;;;;;;9.20;8.50;;;35.60;1.00;;;;;;5073279;28;20423;-46
2023/06/25 12:07:01;;;;;;;9.00;8.30;;;36.20;1.00;;;;;;5054047;28;20427;-44
2023/06/25 12:09:27;;;;;;;8.93;8.13;;;36.50;1.00;;;;;;5055327;28;20189;-43
2023/06/25 12:11:55;;;;;;;9.30;8.60;;;36.50;1.00;;;;;;5077358;28;20430;-45
2023/06/25 12:14:21;;;;;;;9.27;8.50;;;36.40;1.00;;;;;;5038914;28;20423;-43
2023/06/25 12:16:50;;;;;;;9.90;9.10;;;36.40;1.00;;;;;;5072281;28;20463;-43
2023/06/25 12:19:16;;;;;;;9.50;8.70;;;35.70;1.00;;;;;;5054658;28;20223;-44
2023/06/25 12:21:41;;;;;;;9.20;8.40;;;35.60;1.00;;;;;;5073193;28;20414;-42
2023/06/25 12:24:07;;;;;;;9.70;9.00;;;35.80;1.00;;;;;;5074143;28;20197;-44
2023/06/25 12:26:32;;;;;;;9.73;8.90;;;36.20;1.00;;;;;;5073981;28;20310;-44
2023/06/25 12:28:58;;;;;;;9.70;8.83;;;37.00;1.00;;;;;;5073266;28;20192;-44
2023/06/25 12:31:24;;;;;;;11.07;10.07;;;37.40;1.00;;;;;;5039180;28;20563;-42
2023/06/25 12:33:49;;;;;;;9.67;8.90;;;37.20;1.00;;;;;;5072098;28;20189;-42
2023/06/25 12:36:15;;;;;;;9.17;8.40;;;36.80;1.00;;;;;;5071980;28;20182;-43
2023/06/25 12:38:40;;;;;;;9.90;9.10;;;35.70;1.00;;;;;;5073289;28;20169;-44
2023/06/25 12:41:06;;;;;;;10.27;9.47;;;35.10;1.00;;;;;;5072480;28;20203;-44
2023/06/25 12:43:32;;;;;;;10.70;9.80;;;34.70;1.00;;;;;;5036562;28;20586;-44
2023/06/25 12:45:57;;;;;;;8.80;8.10;;;35.20;1.00;;;;;;5072106;28;20169;-42
2023/06/25 12:48:23;;;;;;;10.20;9.30;;;35.90;1.00;;;;;;5072611;28;20177;-44